Cfl Promise — PBOH — position and weather

sailwx.info

Track history (hours):
 
Tides and Currents Weather Stations Pressure Air Temp Water Temp Dewpoint Dewpoint Depression Visibility Wind Speed Wind Dir Waves Ship Positions

Cfl Promise

Last reported at 2018-Jun-24 05:51 UTC. Time now 2018-Jun-24 06:44 UTC.
Position N 51°22' E 004°17'.

Length 119 m; draft 5.5 m.

Type: Cargo ship. MMSI: 245959000.

Date/timePositionNaut miles runAvg speedWind from/ knotsBaromVisibWave heightAir tempDewpointWater temp
2018-Jun-24 05:51N 51°22' E 004°17'0 0.0
2018-Jun-24 05:21N 51°22' E 004°17'0 0.0
2018-Jun-24 04:51N 51°22' E 004°17'0 0.0
2018-Jun-24 04:21N 51°22' E 004°17'0 0.0
2018-Jun-24 04:00N 51°22' E 004°17'0 0.0
2018-Jun-24 03:27N 51°22' E 004°17'0 0.0
2018-Jun-24 02:57N 51°22' E 004°17'0 0.0
2018-Jun-24 02:27N 51°22' E 004°17'0 0.0
2018-Jun-24 01:54N 51°22' E 004°17'0 0.0
2018-Jun-24 00:48N 51°22' E 004°17'0 0.0
2018-Jun-24 00:18N 51°22' E 004°17'0 0.0
2018-Jun-24 00:00N 51°22' E 004°17'0 0.0
2018-Jun-23 20:27N 51°22' E 004°17'0 0.0
2018-Jun-23 19:18N 51°22' E 004°17'0 0.0
2018-Jun-23 18:57N 51°22' E 004°17'0 0.0
2018-Jun-23 18:24N 51°22' E 004°17'0 0.0
2018-Jun-23 16:45N 51°22' E 004°17'0 0.0
2018-Jun-23 15:03N 51°22' E 004°17'0 0.0
2018-Jun-23 14:45N 51°22' E 004°17'0 0.0
2018-Jun-23 13:27N 51°22' E 004°17'0 0.0
2018-Jun-23 12:39N 51°22' E 004°17'0 0.0
2018-Jun-23 12:15N 51°22' E 004°17'0 0.0
2018-Jun-23 11:57N 51°22' E 004°17'0 0.0
2018-Jun-23 10:03N 51°22' E 004°17'0 0.1
2018-Jun-23 09:51N 51°22' E 004°17'0 0.0
2018-Jun-23 09:15N 51°22' E 004°17'0 0.0
2018-Jun-23 08:51N 51°22' E 004°17'0 0.0
2018-Jun-23 08:12N 51°22' E 004°17'0 0.0
2018-Jun-23 07:51N 51°22' E 004°17'0 0.0
2018-Jun-23 07:27N 51°22' E 004°17'1 1.6
2018-Jun-23 07:00N 51°21' E 004°18'0 0.9
2018-Jun-23 06:30N 51°21' E 004°17'0 0.0
2018-Jun-23 06:00N 51°21' E 004°17'1 1.2
2018-Jun-23 05:30N 51°21' E 004°16'4 8.6
2018-Jun-23 05:00N 51°24' E 004°11'5 9.7
2018-Jun-23 04:30N 51°22' E 004°03'4 8.8
2018-Jun-23 04:00N 51°26' E 003°59'5 9.6
2018-Jun-23 03:30N 51°22' E 003°55'5 9.0
2018-Jun-23 03:00N 51°21' E 003°48'5 9.3
2018-Jun-23 02:30N 51°24' E 003°42'5 9.2
2018-Jun-23 02:00N 51°26' E 003°35'4 8.6
2018-Jun-23 01:30N 51°29' E 003°30'5 9.8
2018-Jun-23 01:00N 51°32' E 003°25'5 9.9
2018-Jun-23 00:30N 51°37' E 003°22'510.7
2018-Jun-22 23:59N 51°41' E 003°17'610.3
2018-Jun-22 23:26N 51°46' E 003°12'510.5
2018-Jun-22 22:59N 51°50' E 003°07'610.6
2018-Jun-22 22:24N 51°52' E 002°57'510.8
2018-Jun-22 21:55N 51°52' E 002°49'410.8
2018-Jun-22 21:30N 51°54' E 002°42'610.9
2018-Jun-22 21:00N 51°57' E 002°35'510.9
2018-Jun-22 20:30N 52°01' E 002°29'5 9.9
2018-Jun-22 19:59N 52°06' E 002°26'611.1
2018-Jun-22 19:29N 52°11' E 002°21'611.4
2018-Jun-22 18:59N 52°16' E 002°17'611.8
2018-Jun-22 18:30N 52°21' E 002°13'1812.0
2018-Jun-22 16:58N 52°39' E 002°03'712.7
2018-Jun-22 16:23N 52°45' E 001°58'512.8
2018-Jun-22 16:00N 52°48' E 001°52'813.1
2018-Jun-22 15:24N 52°53' E 001°41'512.9
2018-Jun-22 15:00N 52°55' E 001°34'713.0
2018-Jun-22 14:28N 52°60' E 001°24'612.6
2018-Jun-22 13:59N 53°03' E 001°16'47 2.3
2018-Jun-21 17:13N 53°33' E 000°14'410.9
2018-Jun-21 16:51N 53°33' E 000°08'410.1
2018-Jun-21 16:28N 53°35' E 000°02'612.6
2018-Jun-21 16:00N 53°37' W 000°07'3 3.2
2018-Jun-21 15:11N 53°38' W 000°12'0 0.4
2018-Jun-21 14:59N 53°38' W 000°12'0 0.0
2018-Jun-21 14:29N 53°38' W 000°12'0 0.0
2018-Jun-21 13:59N 53°38' W 000°12'0 0.0
2018-Jun-21 13:26N 53°38' W 000°12'0 0.0
2018-Jun-21 12:56N 53°38' W 000°12'0 0.0
2018-Jun-21 12:29N 53°38' W 000°12'0 0.0
2018-Jun-21 11:59N 53°38' W 000°12'0 0.0
2018-Jun-21 11:29N 53°38' W 000°12'0 0.0
2018-Jun-21 10:50N 53°38' W 000°12'0 0.0
2018-Jun-21 10:29N 53°38' W 000°12'0 0.0
2018-Jun-21 09:59N 53°38' W 000°12'0 0.0
2018-Jun-21 09:26N 53°38' W 000°12'0 0.0
2018-Jun-21 08:44N 53°38' W 000°12'0 0.0
2018-Jun-21 08:29N 53°38' W 000°12'0 0.0
2018-Jun-21 07:59N 53°38' W 000°12'0 0.0
2018-Jun-21 07:29N 53°38' W 000°12'0 0.0
2018-Jun-21 06:59N 53°38' W 000°12'0 0.0
2018-Jun-21 06:26N 53°38' W 000°12'0 0.0
2018-Jun-21 05:59N 53°38' W 000°12'0 0.0
2018-Jun-21 04:56N 53°38' W 000°12'0 0.0
2018-Jun-21 04:14N 53°38' W 000°12'0 0.0
2018-Jun-21 03:56N 53°38' W 000°12'0 0.0
2018-Jun-21 03:26N 53°38' W 000°12'0 0.0
2018-Jun-21 02:56N 53°38' W 000°12'0 0.0
2018-Jun-21 02:26N 53°38' W 000°12'0 0.0
2018-Jun-21 01:38N 53°38' W 000°12'0 0.0
2018-Jun-21 01:08N 53°38' W 000°12'0 0.0
2018-Jun-21 00:50N 53°38' W 000°12'0 0.0
2018-Jun-21 00:20N 53°38' W 000°12'0 0.0
2018-Jun-20 23:56N 53°38' W 000°12'0 0.0
2018-Jun-20 23:26N 53°38' W 000°12'0 0.0
2018-Jun-20 22:29N 53°38' W 000°12'0 0.0
2018-Jun-20 21:59N 53°38' W 000°12'0 0.0
2018-Jun-20 21:26N 53°38' W 000°12'0 0.0
2018-Jun-20 20:59N 53°38' W 000°12'0 0.0
2018-Jun-20 20:26N 53°38' W 000°12'0 0.0
2018-Jun-20 19:59N 53°38' W 000°12'0 0.0
2018-Jun-20 19:29N 53°38' W 000°12'0 0.0
2018-Jun-20 18:59N 53°38' W 000°12'0 0.0
2018-Jun-20 18:26N 53°38' W 000°12'0 0.0
2018-Jun-20 17:59N 53°38' W 000°12'0 0.0
2018-Jun-20 17:29N 53°38' W 000°12'0 0.0
2018-Jun-20 16:59N 53°38' W 000°12'0 0.0
2018-Jun-20 16:29N 53°38' W 000°12'0 0.0
2018-Jun-20 15:56N 53°38' W 000°12'0 0.0
2018-Jun-20 15:29N 53°38' W 000°12'0 0.0
2018-Jun-20 14:53N 53°38' W 000°12'0 0.0
2018-Jun-20 14:26N 53°38' W 000°12'0 0.0
2018-Jun-20 13:47N 53°38' W 000°12'0 0.0
2018-Jun-20 13:20N 53°38' W 000°12'0 0.0
2018-Jun-20 12:53N 53°38' W 000°12'0 0.0
2018-Jun-20 12:29N 53°38' W 000°12'0 0.0
2018-Jun-20 11:56N 53°38' W 000°12'0 0.0
2018-Jun-20 11:26N 53°38' W 000°12'0 0.0
2018-Jun-20 10:59N 53°38' W 000°12'0 0.0
2018-Jun-20 10:26N 53°38' W 000°12'0 0.0
2018-Jun-20 09:50N 53°38' W 000°12'0 0.0
2018-Jun-20 09:29N 53°38' W 000°12'0 0.0
2018-Jun-20 08:35N 53°38' W 000°12'0 0.0
2018-Jun-20 07:50N 53°38' W 000°12'0 0.0
2018-Jun-20 07:23N 53°38' W 000°12'0 0.0
2018-Jun-20 06:53N 53°38' W 000°12'0 0.0
2018-Jun-20 06:08N 53°38' W 000°12'0 0.0
2018-Jun-20 05:59N 53°38' W 000°12'0 0.0
2018-Jun-20 03:44N 53°38' W 000°12'0 0.0
2018-Jun-20 03:14N 53°38' W 000°12'0 0.0
2018-Jun-20 02:05N 53°38' W 000°12'0 0.0
2018-Jun-20 01:53N 53°38' W 000°12'0 0.0
2018-Jun-19 22:35N 53°38' W 000°12'0 0.0
2018-Jun-19 22:29N 53°38' W 000°12'0 0.0
2018-Jun-19 21:58N 53°38' W 000°12'0 0.6
2018-Jun-19 21:30N 53°38' W 000°11'1 1.4
2018-Jun-19 21:01N 53°38' W 000°10'610.9
2018-Jun-19 20:30N 53°36' W 000°02'611.7
2018-Jun-19 19:57N 53°33' E 000°08'40 3.0
2018-Jun-19 06:21N 53°16' E 001°09'410.7
2018-Jun-19 05:59N 53°13' E 001°15'611.2
2018-Jun-19 05:28N 53°10' E 001°22'511.2
2018-Jun-19 05:00N 53°07' E 001°29'610.9
2018-Jun-19 04:29N 53°04' E 001°37'610.6
2018-Jun-19 03:55N 53°00' E 001°45'510.1
2018-Jun-19 03:28N 52°58' E 001°52'32 6.9
2018-Jun-18 22:47N 52°28' E 002°12'17 9.2
2018-Jun-18 20:53N 52°11' E 002°11'410.8
2018-Jun-18 20:28N 52°06' E 002°11'511.5
2018-Jun-18 20:00N 52°01' E 002°11'611.6
2018-Jun-18 19:30N 51°55' E 002°11'611.7
2018-Jun-18 19:00N 51°49' E 002°09'612.0
2018-Jun-18 18:30N 51°44' E 002°05'611.9
2018-Jun-18 18:00N 51°38' E 002°01'611.9
2018-Jun-18 17:30N 51°33' E 001°57'5 9.8
2018-Jun-18 17:00N 51°28' E 001°59'5 9.7
2018-Jun-18 16:30N 51°24' E 002°03'5 9.4
2018-Jun-18 16:00N 51°20' E 002°06'510.9
2018-Jun-18 15:30N 51°14' E 002°04'611.9
2018-Jun-18 15:00N 51°12' E 001°56'611.7
2018-Jun-18 14:30N 51°09' E 001°47'611.3
2018-Jun-18 14:00N 51°05' E 001°41'510.5
2018-Jun-18 13:30N 51°01' E 001°35'5 9.9
2018-Jun-18 13:00N 50°57' E 001°29'4 8.9
2018-Jun-18 12:30N 50°54' E 001°27'4 8.3
2018-Jun-18 11:59N 50°49' E 001°25'5 8.0
2018-Jun-18 11:22N 50°44' E 001°23'3 7.9
2018-Jun-18 11:00N 50°42' E 001°22'4 7.9
2018-Jun-18 10:27N 50°39' E 001°17'4 8.4
2018-Jun-18 09:58N 50°36' E 001°12'4 8.7
2018-Jun-18 09:28N 50°33' E 001°07'5 8.6
2018-Jun-18 08:51N 50°29' E 001°01'244 9.8
2018-Jun-17 07:53N 49°03' W 004°52'511.7
2018-Jun-17 07:29N 49°01' W 004°59'611.5
2018-Jun-17 07:00N 48°58' W 005°06'4 9.2
2018-Jun-17 06:30N 48°56' W 005°12'510.2
2018-Jun-17 05:59N 48°53' W 005°19'511.4
2018-Jun-17 05:30N 48°51' W 005°26'710.9
2018-Jun-17 04:51N 48°47' W 005°35'  
2018-Jun-14 09:13N 39°25' W 009°52'2 8.2
2018-Jun-14 08:56N 39°22' W 009°51'3 8.1
2018-Jun-14 08:30N 39°19' W 009°51'4 7.9
2018-Jun-14 08:01N 39°15' W 009°51'4 7.6
2018-Jun-14 07:30N 39°11' W 009°51'4 7.9
2018-Jun-14 07:01N 39°07' W 009°51'4 8.1
2018-Jun-14 06:30N 39°03' W 009°52'4 8.0
2018-Jun-14 06:01N 38°59' W 009°51'  
Track history (hours):
 
Tides and Currents Weather Stations Pressure Air Temp Water Temp Dewpoint Dewpoint Depression Visibility Wind Speed Wind Dir Waves Ship Positions

Cfl Promise

Last reported at 2018-Jun-24 05:51 UTC. Time now 2018-Jun-24 06:44 UTC.
Position N 51°22' E 004°17'.

Length 119 m; draft 5.5 m.

Type: Cargo ship. MMSI: 245959000.

Date/timePositionNaut miles runAvg speedWind from/ knotsBaromVisibWave heightAir tempDewpointWater temp
2018-Jun-24 05:51N 51°22' E 004°17'0 0.0
2018-Jun-24 05:21N 51°22' E 004°17'0 0.0
2018-Jun-24 04:51N 51°22' E 004°17'0 0.0
2018-Jun-24 04:21N 51°22' E 004°17'0 0.0
2018-Jun-24 04:00N 51°22' E 004°17'0 0.0
2018-Jun-24 03:27N 51°22' E 004°17'0 0.0
2018-Jun-24 02:57N 51°22' E 004°17'0 0.0
2018-Jun-24 02:27N 51°22' E 004°17'0 0.0
2018-Jun-24 01:54N 51°22' E 004°17'0 0.0
2018-Jun-24 00:48N 51°22' E 004°17'0 0.0
2018-Jun-24 00:18N 51°22' E 004°17'0 0.0
2018-Jun-24 00:00N 51°22' E 004°17'0 0.0
2018-Jun-23 20:27N 51°22' E 004°17'0 0.0
2018-Jun-23 19:18N 51°22' E 004°17'0 0.0
2018-Jun-23 18:57N 51°22' E 004°17'0 0.0
2018-Jun-23 18:24N 51°22' E 004°17'0 0.0
2018-Jun-23 16:45N 51°22' E 004°17'0 0.0
2018-Jun-23 15:03N 51°22' E 004°17'0 0.0
2018-Jun-23 14:45N 51°22' E 004°17'0 0.0
2018-Jun-23 13:27N 51°22' E 004°17'0 0.0
2018-Jun-23 12:39N 51°22' E 004°17'0 0.0
2018-Jun-23 12:15N 51°22' E 004°17'0 0.0
2018-Jun-23 11:57N 51°22' E 004°17'0 0.0
2018-Jun-23 10:03N 51°22' E 004°17'0 0.1
2018-Jun-23 09:51N 51°22' E 004°17'0 0.0
2018-Jun-23 09:15N 51°22' E 004°17'0 0.0
2018-Jun-23 08:51N 51°22' E 004°17'0 0.0
2018-Jun-23 08:12N 51°22' E 004°17'0 0.0
2018-Jun-23 07:51N 51°22' E 004°17'0 0.0
2018-Jun-23 07:27N 51°22' E 004°17'1 1.6
2018-Jun-23 07:00N 51°21' E 004°18'0 0.9
2018-Jun-23 06:30N 51°21' E 004°17'0 0.0
2018-Jun-23 06:00N 51°21' E 004°17'1 1.2
2018-Jun-23 05:30N 51°21' E 004°16'4 8.6
2018-Jun-23 05:00N 51°24' E 004°11'5 9.7
2018-Jun-23 04:30N 51°22' E 004°03'4 8.8
2018-Jun-23 04:00N 51°26' E 003°59'5 9.6
2018-Jun-23 03:30N 51°22' E 003°55'5 9.0
2018-Jun-23 03:00N 51°21' E 003°48'5 9.3
2018-Jun-23 02:30N 51°24' E 003°42'5 9.2
2018-Jun-23 02:00N 51°26' E 003°35'4 8.6
2018-Jun-23 01:30N 51°29' E 003°30'5 9.8
2018-Jun-23 01:00N 51°32' E 003°25'5 9.9
2018-Jun-23 00:30N 51°37' E 003°22'510.7
2018-Jun-22 23:59N 51°41' E 003°17'610.3
2018-Jun-22 23:26N 51°46' E 003°12'510.5
2018-Jun-22 22:59N 51°50' E 003°07'610.6
2018-Jun-22 22:24N 51°52' E 002°57'510.8
2018-Jun-22 21:55N 51°52' E 002°49'410.8
2018-Jun-22 21:30N 51°54' E 002°42'610.9
2018-Jun-22 21:00N 51°57' E 002°35'510.9
2018-Jun-22 20:30N 52°01' E 002°29'5 9.9
2018-Jun-22 19:59N 52°06' E 002°26'611.1
2018-Jun-22 19:29N 52°11' E 002°21'611.4
2018-Jun-22 18:59N 52°16' E 002°17'611.8
2018-Jun-22 18:30N 52°21' E 002°13'1812.0
2018-Jun-22 16:58N 52°39' E 002°03'712.7
2018-Jun-22 16:23N 52°45' E 001°58'512.8
2018-Jun-22 16:00N 52°48' E 001°52'813.1
2018-Jun-22 15:24N 52°53' E 001°41'512.9
2018-Jun-22 15:00N 52°55' E 001°34'713.0
2018-Jun-22 14:28N 52°60' E 001°24'612.6
2018-Jun-22 13:59N 53°03' E 001°16'47 2.3
2018-Jun-21 17:13N 53°33' E 000°14'410.9
2018-Jun-21 16:51N 53°33' E 000°08'410.1
2018-Jun-21 16:28N 53°35' E 000°02'612.6
2018-Jun-21 16:00N 53°37' W 000°07'3 3.2
2018-Jun-21 15:11N 53°38' W 000°12'0 0.4
2018-Jun-21 14:59N 53°38' W 000°12'0 0.0
2018-Jun-21 14:29N 53°38' W 000°12'0 0.0
2018-Jun-21 13:59N 53°38' W 000°12'0 0.0
2018-Jun-21 13:26N 53°38' W 000°12'0 0.0
2018-Jun-21 12:56N 53°38' W 000°12'0 0.0
2018-Jun-21 12:29N 53°38' W 000°12'0 0.0
2018-Jun-21 11:59N 53°38' W 000°12'0 0.0
2018-Jun-21 11:29N 53°38' W 000°12'0 0.0
2018-Jun-21 10:50N 53°38' W 000°12'0 0.0
2018-Jun-21 10:29N 53°38' W 000°12'0 0.0
2018-Jun-21 09:59N 53°38' W 000°12'0 0.0
2018-Jun-21 09:26N 53°38' W 000°12'0 0.0
2018-Jun-21 08:44N 53°38' W 000°12'0 0.0
2018-Jun-21 08:29N 53°38' W 000°12'0 0.0
2018-Jun-21 07:59N 53°38' W 000°12'0 0.0
2018-Jun-21 07:29N 53°38' W 000°12'0 0.0
2018-Jun-21 06:59N 53°38' W 000°12'0 0.0
2018-Jun-21 06:26N 53°38' W 000°12'0 0.0
2018-Jun-21 05:59N 53°38' W 000°12'0 0.0
2018-Jun-21 04:56N 53°38' W 000°12'0 0.0
2018-Jun-21 04:14N 53°38' W 000°12'0 0.0
2018-Jun-21 03:56N 53°38' W 000°12'0 0.0
2018-Jun-21 03:26N 53°38' W 000°12'0 0.0
2018-Jun-21 02:56N 53°38' W 000°12'0 0.0
2018-Jun-21 02:26N 53°38' W 000°12'0 0.0
2018-Jun-21 01:38N 53°38' W 000°12'0 0.0
2018-Jun-21 01:08N 53°38' W 000°12'0 0.0
2018-Jun-21 00:50N 53°38' W 000°12'0 0.0
2018-Jun-21 00:20N 53°38' W 000°12'0 0.0
2018-Jun-20 23:56N 53°38' W 000°12'0 0.0
2018-Jun-20 23:26N 53°38' W 000°12'0 0.0
2018-Jun-20 22:29N 53°38' W 000°12'0 0.0
2018-Jun-20 21:59N 53°38' W 000°12'0 0.0
2018-Jun-20 21:26N 53°38' W 000°12'0 0.0
2018-Jun-20 20:59N 53°38' W 000°12'0 0.0
2018-Jun-20 20:26N 53°38' W 000°12'0 0.0
2018-Jun-20 19:59N 53°38' W 000°12'0 0.0
2018-Jun-20 19:29N 53°38' W 000°12'0 0.0
2018-Jun-20 18:59N 53°38' W 000°12'0 0.0
2018-Jun-20 18:26N 53°38' W 000°12'0 0.0
2018-Jun-20 17:59N 53°38' W 000°12'0 0.0
2018-Jun-20 17:29N 53°38' W 000°12'0 0.0
2018-Jun-20 16:59N 53°38' W 000°12'0 0.0
2018-Jun-20 16:29N 53°38' W 000°12'0 0.0
2018-Jun-20 15:56N 53°38' W 000°12'0 0.0
2018-Jun-20 15:29N 53°38' W 000°12'0 0.0
2018-Jun-20 14:53N 53°38' W 000°12'0 0.0
2018-Jun-20 14:26N 53°38' W 000°12'0 0.0
2018-Jun-20 13:47N 53°38' W 000°12'0 0.0
2018-Jun-20 13:20N 53°38' W 000°12'0 0.0
2018-Jun-20 12:53N 53°38' W 000°12'0 0.0
2018-Jun-20 12:29N 53°38' W 000°12'0 0.0
2018-Jun-20 11:56N 53°38' W 000°12'0 0.0
2018-Jun-20 11:26N 53°38' W 000°12'0 0.0
2018-Jun-20 10:59N 53°38' W 000°12'0 0.0
2018-Jun-20 10:26N 53°38' W 000°12'0 0.0
2018-Jun-20 09:50N 53°38' W 000°12'0 0.0
2018-Jun-20 09:29N 53°38' W 000°12'0 0.0
2018-Jun-20 08:35N 53°38' W 000°12'0 0.0
2018-Jun-20 07:50N 53°38' W 000°12'0 0.0
2018-Jun-20 07:23N 53°38' W 000°12'0 0.0
2018-Jun-20 06:53N 53°38' W 000°12'0 0.0
2018-Jun-20 06:08N 53°38' W 000°12'0 0.0
2018-Jun-20 05:59N 53°38' W 000°12'0 0.0
2018-Jun-20 03:44N 53°38' W 000°12'0 0.0
2018-Jun-20 03:14N 53°38' W 000°12'0 0.0
2018-Jun-20 02:05N 53°38' W 000°12'0 0.0
2018-Jun-20 01:53N 53°38' W 000°12'0 0.0
2018-Jun-19 22:35N 53°38' W 000°12'0 0.0
2018-Jun-19 22:29N 53°38' W 000°12'0 0.0
2018-Jun-19 21:58N 53°38' W 000°12'0 0.6
2018-Jun-19 21:30N 53°38' W 000°11'1 1.4
2018-Jun-19 21:01N 53°38' W 000°10'610.9
2018-Jun-19 20:30N 53°36' W 000°02'611.7
2018-Jun-19 19:57N 53°33' E 000°08'40 3.0
2018-Jun-19 06:21N 53°16' E 001°09'410.7
2018-Jun-19 05:59N 53°13' E 001°15'611.2
2018-Jun-19 05:28N 53°10' E 001°22'511.2
2018-Jun-19 05:00N 53°07' E 001°29'610.9
2018-Jun-19 04:29N 53°04' E 001°37'610.6
2018-Jun-19 03:55N 53°00' E 001°45'510.1
2018-Jun-19 03:28N 52°58' E 001°52'32 6.9
2018-Jun-18 22:47N 52°28' E 002°12'17 9.2
2018-Jun-18 20:53N 52°11' E 002°11'410.8
2018-Jun-18 20:28N 52°06' E 002°11'511.5
2018-Jun-18 20:00N 52°01' E 002°11'611.6
2018-Jun-18 19:30N 51°55' E 002°11'611.7
2018-Jun-18 19:00N 51°49' E 002°09'612.0
2018-Jun-18 18:30N 51°44' E 002°05'611.9
2018-Jun-18 18:00N 51°38' E 002°01'611.9
2018-Jun-18 17:30N 51°33' E 001°57'5 9.8
2018-Jun-18 17:00N 51°28' E 001°59'5 9.7
2018-Jun-18 16:30N 51°24' E 002°03'5 9.4
2018-Jun-18 16:00N 51°20' E 002°06'510.9
2018-Jun-18 15:30N 51°14' E 002°04'611.9
2018-Jun-18 15:00N 51°12' E 001°56'611.7
2018-Jun-18 14:30N 51°09' E 001°47'611.3
2018-Jun-18 14:00N 51°05' E 001°41'510.5
2018-Jun-18 13:30N 51°01' E 001°35'5 9.9
2018-Jun-18 13:00N 50°57' E 001°29'4 8.9
2018-Jun-18 12:30N 50°54' E 001°27'4 8.3
2018-Jun-18 11:59N 50°49' E 001°25'5 8.0
2018-Jun-18 11:22N 50°44' E 001°23'3 7.9
2018-Jun-18 11:00N 50°42' E 001°22'4 7.9
2018-Jun-18 10:27N 50°39' E 001°17'4 8.4
2018-Jun-18 09:58N 50°36' E 001°12'4 8.7
2018-Jun-18 09:28N 50°33' E 001°07'5 8.6
2018-Jun-18 08:51N 50°29' E 001°01'244 9.8
2018-Jun-17 07:53N 49°03' W 004°52'511.7
2018-Jun-17 07:29N 49°01' W 004°59'611.5
2018-Jun-17 07:00N 48°58' W 005°06'4 9.2
2018-Jun-17 06:30N 48°56' W 005°12'510.2
2018-Jun-17 05:59N 48°53' W 005°19'511.4
2018-Jun-17 05:30N 48°51' W 005°26'710.9
2018-Jun-17 04:51N 48°47' W 005°35'  
2018-Jun-14 09:13N 39°25' W 009°52'2 8.2
2018-Jun-14 08:56N 39°22' W 009°51'3 8.1
2018-Jun-14 08:30N 39°19' W 009°51'4 7.9
2018-Jun-14 08:01N 39°15' W 009°51'4 7.6
2018-Jun-14 07:30N 39°11' W 009°51'4 7.9
2018-Jun-14 07:01N 39°07' W 009°51'4 8.1
2018-Jun-14 06:30N 39°03' W 009°52'4 8.0
2018-Jun-14 06:01N 38°59' W 009°51'  

Dump ship's entire track history